Station Historical Data
Daily Summary for May 3, 2011 Units:  Metric    English   Both
« Previous Day
Next Day »
Daily Weekly Monthly Yearly Custom
  High: Low: Average:
Temperature: 17.3 °C 7 °C 11.2 °C
Dew Point: 16 °C 6.7 °C 9.6 °C
Humidity: 98% 73% 90%
Wind Speed: 20.9km/h 0km/h 6.3km/h
Wind Gust: 32.2km/h - -
Wind- - West
Pressure: 1024.6 hPa 1012.8 hPa -
Precipitation: 28.45 mm    
Historical Graphs
 
 
Tabular Data for May 3, 2011
Time Temperature Dew Point Pressure Wind Wind Speed Wind Gust Humidity Rainfall Rate (Hourly) Conditions
00:00 17.3 °C 15.9 °C 1014.4 hPa WNW 12.9 km/h 17.7 km/h 92% 0 mm
00:01 17.2 °C 16 °C 1014.4 hPa NW 8 km/h 12.9 km/h 93% 0 mm
00:02 17.1 °C 16 °C 1014.8 hPa WNW 4.8 km/h 12.9 km/h 93% 0 mm
00:06 16.9 °C 16 °C 1014.8 hPa WNW 4.8 km/h 9.7 km/h 94% 0 mm
00:11 16.8 °C 15.8 °C 1014.8 hPa West 6.4 km/h 9.7 km/h 94% 0 mm
00:16 16.6 °C 15.6 °C 1014.8 hPa WNW 16.1 km/h 19.3 km/h 94% 0 mm
00:21 16.1 °C 15.1 °C 1015.1 hPa NW 19.3 km/h 19.3 km/h 94% 0 mm
00:26 15.7 °C 14.8 °C 1014.8 hPa NW 8 km/h 17.7 km/h 94% 0 mm
00:27 15.7 °C 14.9 °C 1015.1 hPa NW 8 km/h 17.7 km/h 95% 0 mm
00:32 15.3 °C 14.6 °C 1014.8 hPa NW 4.8 km/h 16.1 km/h 95% 0 mm
00:33 15.3 °C 14.6 °C 1014.8 hPa NW 9.7 km/h 14.5 km/h 95% 0 mm
00:34 15.2 °C 14.4 °C 1014.8 hPa NW 9.7 km/h 19.3 km/h 95% 0 mm
00:36 15.1 °C 14.3 °C 1014.8 hPa NW 8 km/h 16.1 km/h 95% 0 mm
00:41 14.9 °C 14.2 °C 1014.8 hPa NW 6.4 km/h 12.9 km/h 95% 0 mm
00:46 14.9 °C 14.2 °C 1014.4 hPa North 6.4 km/h 9.7 km/h 95% 0 mm
00:51 14.8 °C 14.1 °C 1014.4 hPa NNW 8 km/h 12.9 km/h 95% 0 mm
00:52 14.8 °C 14 °C 1014.4 hPa NNW 6.4 km/h 12.9 km/h 95% 0 mm
00:56 14.7 °C 13.9 °C 1014.8 hPa NW 6.4 km/h 11.3 km/h 95% 0 mm
00:57 14.7 °C 13.9 °C 1014.8 hPa NNW 8 km/h 11.3 km/h 95% 0 mm
00:58 14.7 °C 13.9 °C 1014.8 hPa NW 9.7 km/h 11.3 km/h 95% 0 mm
01:00 14.6 °C 13.8 °C 1014.8 hPa NW 4.8 km/h 11.3 km/h 95% 0 mm
01:03 14.6 °C 13.8 °C 1014.8 hPa NW 9.7 km/h 11.3 km/h 95% 0 mm
01:08 14.5 °C 13.7 °C 1014.8 hPa NNW 11.3 km/h 11.3 km/h 95% 0 mm
01:13 14.4 °C 13.6 °C 1014.8 hPa North 6.4 km/h 9.7 km/h 95% 0 mm
01:18 14.3 °C 13.5 °C 1014.8 hPa North 6.4 km/h 12.9 km/h 95% 0 mm
01:23 14.1 °C 13.2 °C 1014.8 hPa NNW 9.7 km/h 12.9 km/h 94% 0 mm
01:28 14 °C 13.2 °C 1014.4 hPa North 6.4 km/h 11.3 km/h 95% 0 mm
01:30 14 °C 13.2 °C 1014.4 hPa North 8 km/h 9.7 km/h 95% 0 mm
01:33 13.9 °C 13.2 °C 1014.8 hPa NW 9.7 km/h 11.3 km/h 95% 0 mm
01:34 13.9 °C 13.2 °C 1014.4 hPa NW 8 km/h 11.3 km/h 95% 0 mm
01:36 13.9 °C 13.1 °C 1014.4 hPa NNW 8 km/h 11.3 km/h 95% 0 mm
01:39 13.9 °C 13.1 °C 1014.4 hPa North 11.3 km/h 14.5 km/h 95% 0 mm
01:41 13.8 °C 13.1 °C 1014.4 hPa NW 4.8 km/h 14.5 km/h 95% 0 mm
01:46 13.8 °C 13.1 °C 1014.4 hPa NNE 1.6 km/h 9.7 km/h 95% 0 mm
01:51 13.8 °C 13 °C 1014.1 hPa North 3.2 km/h 6.4 km/h 95% 0 mm
01:52 13.8 °C 13 °C 1014.1 hPa North 3.2 km/h 6.4 km/h 95% 0 mm
01:57 13.7 °C 12.9 °C 1014.1 hPa NE 6.4 km/h 6.4 km/h 95% 0 mm
01:58 13.7 °C 12.9 °C 1014.1 hPa North 4.8 km/h 6.4 km/h 95% 0 mm
02:00 13.7 °C 12.9 °C 1013.8 hPa NNE 3.2 km/h 8 km/h 95% 0 mm
02:02 13.7 °C 12.9 °C 1013.8 hPa North 3.2 km/h 4.8 km/h 95% 0 mm
02:07 13.7 °C 12.9 °C 1013.8 hPa NNW 6.4 km/h 6.4 km/h 95% 0 mm
02:12 13.7 °C 13.1 °C 1013.8 hPa NNW 4.8 km/h 8 km/h 96% 0 mm
02:13 13.7 °C 13.1 °C 1013.8 hPa NW 6.4 km/h 8 km/h 96% 0 mm
02:18 13.7 °C 13.1 °C 1013.8 hPa NNW 3.2 km/h 6.4 km/h 96% 0 mm
02:23 13.7 °C 13.1 °C 1013.8 hPa NE 3.2 km/h 9.7 km/h 96% 0 mm
02:28 13.7 °C 12.9 °C 1013.8 hPa NE 3.2 km/h 8 km/h 95% 0 mm
02:29 13.7 °C 12.9 °C 1013.8 hPa NNE 3.2 km/h 6.4 km/h 95% 0 mm
02:30 13.6 °C 12.8 °C 1013.8 hPa NNE 4.8 km/h 8 km/h 95% 0 mm
02:33 13.6 °C 12.8 °C 1013.8 hPa NNW 3.2 km/h 6.4 km/h 95% 0 mm
02:34 13.6 °C 12.8 °C 1013.8 hPa NE 3.2 km/h 6.4 km/h 95% 0 mm
02:37 13.6 °C 12.8 °C 1013.8 hPa NNE 3.2 km/h 4.8 km/h 95% 0 mm
02:38 13.6 °C 12.8 °C 1013.8 hPa NNE 6.4 km/h 6.4 km/h 95% 0 mm
02:39 13.6 °C 12.8 °C 1013.8 hPa NE 6.4 km/h 6.4 km/h 95% 0 mm
02:44 13.6 °C 12.8 °C 1013.8 hPa NNE 6.4 km/h 11.3 km/h 95% 0 mm
02:49 13.6 °C 12.8 °C 1013.4 hPa NNE 6.4 km/h 11.3 km/h 95% 0 mm
02:54 13.6 °C 12.8 °C 1013.1 hPa ESE 1.6 km/h 8 km/h 95% 0 mm
02:56 13.6 °C 12.8 °C 1013.1 hPa ENE 3.2 km/h 8 km/h 95% 0 mm
02:59 13.6 °C 12.8 °C 1013.1 hPa East 4.8 km/h 6.4 km/h 95% 0 mm
03:00 13.6 °C 12.8 °C 1013.1 hPa ESE 4.8 km/h 6.4 km/h 95% 0 mm
03:04 13.6 °C 12.8 °C 1013.1 hPa ENE 1.6 km/h 6.4 km/h 95% 0 mm
03:09 13.6 °C 12.8 °C 1013.1 hPa NE 8 km/h 9.7 km/h 95% 0 mm
03:14 13.6 °C 13 °C 1013.1 hPa ENE 3.2 km/h 6.4 km/h 96% 0 mm
03:19 13.7 °C 13.1 °C 1012.8 hPa ENE 3.2 km/h 8 km/h 96% 0 mm
03:20 13.7 °C 13.1 °C 1012.8 hPa East 6.4 km/h 8 km/h 96% 0 mm
03:25 13.7 °C 13.1 °C 1012.8 hPa East 3.2 km/h 8 km/h 96% 0 mm
03:26 13.7 °C 13.1 °C 1012.8 hPa East 1.6 km/h 8 km/h 96% 0 mm
03:30 13.7 °C 13.1 °C 1012.8 hPa NE 1.6 km/h 4.8 km/h 96% 0 mm
03:31 13.7 °C 13.1 °C 1012.8 hPa NE 1.6 km/h 4.8 km/h 96% 0 mm
03:36 13.7 °C 13.1 °C 1012.8 hPa ENE 4.8 km/h 6.4 km/h 96% 0 mm
03:41 13.7 °C 13.1 °C 1012.8 hPa NW 3.2 km/h 3.2 km/h 96% 0 mm
03:46 13.5 °C 12.6 °C 1013.8 hPa WNW 14.5 km/h 29 km/h 94% 0 mm
04:00 13.3 °C 12.7 °C 1013.8 hPa WNW 9.7 km/h 32.2 km/h 96% 96.27 mm
04:30 11.9 °C 11.3 °C 1014.1 hPa WNW 9.7 km/h 20.9 km/h 96% 5.84 mm
05:00 11.4 °C 10.7 °C 1014.8 hPa NW 9.7 km/h 20.9 km/h 95% 0 mm
05:30 10.9 °C 10.1 °C 1015.5 hPa WNW 9.7 km/h 24.1 km/h 95% 0 mm
06:00 9.9 °C 9.1 °C 1015.8 hPa NW 12.9 km/h 22.5 km/h 95% 0 mm
06:30 9.4 °C 8.6 °C 1016.5 hPa NW 9.7 km/h 22.5 km/h 95% 0 mm
07:00 9.2 °C 8.6 °C 1016.5 hPa NW 11.3 km/h 25.7 km/h 96% 14.22 mm
08:00 8.6 °C 7.9 °C 1017.5 hPa NW 11.3 km/h 22.5 km/h 96% 34.54 mm
08:30 8.5 °C 7.9 °C 1018.5 hPa NNW 8 km/h 16.1 km/h 96% 16 mm
09:00 8.6 °C 8.1 °C 1018.8 hPa WNW 6.4 km/h 12.9 km/h 97% 13.21 mm
09:30 8.7 °C 8.1 °C 1019.2 hPa NW 6.4 km/h 14.5 km/h 96% 3.81 mm
10:30 8.8 °C 8.2 °C 1019.9 hPa NW 8 km/h 17.7 km/h 96% 1.27 mm
10:31 8.8 °C 8.2 °C 1019.9 hPa North 8 km/h 9.7 km/h 96% 4.06 mm
10:35 8.7 °C 8.1 °C 1020.2 hPa NW 9.7 km/h 14.5 km/h 96% 3.05 mm
10:37 8.7 °C 8.1 °C 1020.5 hPa NW 9.7 km/h 14.5 km/h 96% 4.83 mm
10:42 8.8 °C 8.2 °C 1021.2 hPa West 4.8 km/h 12.9 km/h 96% 4.06 mm
10:47 8.8 °C 8.2 °C 1020.9 hPa NW 6.4 km/h 8 km/h 96% 2.79 mm
10:48 8.9 °C 8.3 °C 1020.9 hPa NW 4.8 km/h 8 km/h 96% 2.79 mm
10:53 8.9 °C 8.3 °C 1020.9 hPa NW 6.4 km/h 12.9 km/h 96% 3.05 mm
10:58 9 °C 8.6 °C 1021.2 hPa NNW 4.8 km/h 6.4 km/h 97% 2.03 mm
11:03 9 °C 8.4 °C 1020.9 hPa NNW 4.8 km/h 11.3 km/h 96% 1.02 mm
11:08 9.1 °C 8.4 °C 1020.9 hPa NW 14.5 km/h 14.5 km/h 96% 0 mm
11:09 9.1 °C 8.4 °C 1020.9 hPa NNW 11.3 km/h 14.5 km/h 96% 0 mm
11:14 9.1 °C 8.3 °C 1020.9 hPa NNW 11.3 km/h 14.5 km/h 95% 0 mm
11:17 9.1 °C 8.3 °C 1020.2 hPa NNW 20.9 km/h 22.5 km/h 95% 0 mm
11:22 9.2 °C 8.4 °C 1020.5 hPa NW 6.4 km/h 20.9 km/h 95% 0 mm
11:27 9.3 °C 8.5 °C 1020.9 hPa NNW 8 km/h 17.7 km/h 95% 0 mm
11:32 9.3 °C 8.5 °C 1021.2 hPa NW 8 km/h 16.1 km/h 95% 0 mm
11:33 9.2 °C 8.4 °C 1021.6 hPa WNW 3.2 km/h 16.1 km/h 95% 0 mm
11:34 9.3 °C 8.5 °C 1021.6 hPa West 9.7 km/h 11.3 km/h 95% 0 mm
11:35 9.2 °C 8.4 °C 1021.6 hPa NNW 8 km/h 9.7 km/h 95% 0 mm
11:38 9.2 °C 8.4 °C 1021.6 hPa NW 14.5 km/h 16.1 km/h 95% 0 mm
11:43 9.2 °C 8.4 °C 1021.6 hPa West 4.8 km/h 17.7 km/h 95% 4.83 mm
11:48 9.1 °C 8.3 °C 1021.6 hPa NW 12.9 km/h 16.1 km/h 95% 4.32 mm
11:53 9.1 °C 8.3 °C 1022.2 hPa NNW 6.4 km/h 9.7 km/h 95% 4.32 mm
11:54 9.1 °C 8.3 °C 1022.2 hPa NNW 4.8 km/h 9.7 km/h 95% 4.32 mm
11:57 9.1 °C 8.2 °C 1022.2 hPa North 11.3 km/h 17.7 km/h 94% 3.81 mm
11:59 9 °C 8.1 °C 1021.9 hPa NW 9.7 km/h 14.5 km/h 94% 3.81 mm
12:04 8.9 °C 8.2 °C 1021.9 hPa WNW 4.8 km/h 14.5 km/h 95% 3.05 mm
12:09 8.9 °C 8.2 °C 1021.9 hPa NW 6.4 km/h 9.7 km/h 95% 3.05 mm
12:14 8.9 °C 8.1 °C 1021.9 hPa NW 12.9 km/h 14.5 km/h 95% 4.57 mm
12:20 8.9 °C 8.1 °C 1022.2 hPa NW 8 km/h 9.7 km/h 95% 5.08 mm
12:26 8.8 °C 8.2 °C 1022.2 hPa NW 8 km/h 11.3 km/h 96% 4.32 mm
12:31 8.8 °C 8 °C 1022.2 hPa WNW 9.7 km/h 17.7 km/h 95% 2.03 mm
12:35 8.7 °C 7.9 °C 1022.2 hPa NNW 12.9 km/h 19.3 km/h 95% 1.52 mm
12:37 8.7 °C 7.9 °C 1022.2 hPa NNW 9.7 km/h 14.5 km/h 95% 1.52 mm
12:42 8.7 °C 7.9 °C 1022.6 hPa WNW 6.4 km/h 12.9 km/h 95% 1.78 mm
12:47 8.7 °C 7.9 °C 1022.6 hPa NW 8 km/h 12.9 km/h 95% 1.78 mm
12:52 8.6 °C 7.8 °C 1022.2 hPa NNW 11.3 km/h 19.3 km/h 95% 1.78 mm
12:53 8.6 °C 7.8 °C 1021.9 hPa WNW 16.1 km/h 19.3 km/h 95% 1.78 mm
12:57 8.6 °C 7.8 °C 1021.9 hPa NNW 16.1 km/h 20.9 km/h 95% 1.78 mm
12:58 8.6 °C 7.8 °C 1021.9 hPa NNW 19.3 km/h 20.9 km/h 95% 2.03 mm
13:03 8.5 °C 7.7 °C 1022.2 hPa NW 12.9 km/h 17.7 km/h 95% 5.08 mm
13:08 8.4 °C 7.7 °C 1022.2 hPa NNW 11.3 km/h 14.5 km/h 95% 3.81 mm
13:13 8.4 °C 7.7 °C 1021.9 hPa North 6.4 km/h 17.7 km/h 95% 2.54 mm
13:14 8.4 °C 7.7 °C 1021.9 hPa NW 16.1 km/h 16.1 km/h 95% 2.54 mm
13:19 8.4 °C 7.7 °C 1021.9 hPa NNW 9.7 km/h 14.5 km/h 95% 3.05 mm
13:24 8.6 °C 7.8 °C 1021.9 hPa North 9.7 km/h 16.1 km/h 95% 2.29 mm
13:29 8.6 °C 7.8 °C 1021.9 hPa NNW 11.3 km/h 16.1 km/h 95% 2.03 mm
13:30 8.6 °C 7.8 °C 1021.9 hPa North 11.3 km/h 16.1 km/h 95% 1.78 mm
13:35 8.7 °C 7.9 °C 1021.9 hPa NW 8 km/h 17.7 km/h 95% 1.27 mm
13:37 8.7 °C 7.9 °C 1021.9 hPa NNW 11.3 km/h 19.3 km/h 95% 1.02 mm
13:40 8.8 °C 8.1 °C 1021.9 hPa NW 16.1 km/h 16.1 km/h 95% 0 mm
13:45 8.8 °C 8.1 °C 1022.6 hPa NW 9.7 km/h 16.1 km/h 95% 0 mm
13:50 8.8 °C 7.9 °C 1022.9 hPa WNW 9.7 km/h 14.5 km/h 94% 0 mm
13:51 8.8 °C 7.9 °C 1022.9 hPa WNW 9.7 km/h 14.5 km/h 94% 0 mm
13:55 8.8 °C 7.9 °C 1022.9 hPa NNW 6.4 km/h 14.5 km/h 94% 0 mm
13:56 8.9 °C 8 °C 1022.9 hPa NW 16.1 km/h 16.1 km/h 94% 0 mm
14:01 8.9 °C 8.1 °C 1022.9 hPa NW 8 km/h 12.9 km/h 94% 0 mm
14:06 8.9 °C 7.9 °C 1022.6 hPa NNW 8 km/h 12.9 km/h 93% 0 mm
14:11 9.1 °C 8 °C 1022.6 hPa North 11.3 km/h 16.1 km/h 93% 0 mm
14:12 9.1 °C 8 °C 1022.6 hPa NNW 12.9 km/h 16.1 km/h 93% 0 mm
14:17 9.2 °C 8.1 °C 1022.9 hPa North 16.1 km/h 16.1 km/h 93% 0 mm
14:22 9.1 °C 8.1 °C 1022.9 hPa WNW 9.7 km/h 17.7 km/h 93% 0 mm
14:27 9.1 °C 8.1 °C 1022.9 hPa NNW 4.8 km/h 11.3 km/h 93% 0 mm
14:28 9.1 °C 8.1 °C 1022.9 hPa North 9.7 km/h 9.7 km/h 93% 0 mm
14:29 9.1 °C 8.1 °C 1022.6 hPa NW 9.7 km/h 16.1 km/h 93% 0 mm
14:33 9.1 °C 7.9 °C 1022.9 hPa NW 6.4 km/h 19.3 km/h 92% 0 mm
14:36 9.1 °C 7.9 °C 1022.6 hPa NNW 9.7 km/h 12.9 km/h 92% 0 mm
14:41 9.1 °C 8.1 °C 1022.6 hPa NW 16.1 km/h 16.1 km/h 93% 0 mm
14:42 9.1 °C 8.1 °C 1022.6 hPa NW 16.1 km/h 16.1 km/h 93% 0 mm
14:47 9.1 °C 8 °C 1022.6 hPa NNW 11.3 km/h 12.9 km/h 93% 0 mm
14:52 9 °C 7.9 °C 1022.2 hPa NW 6.4 km/h 14.5 km/h 93% 0 mm
14:53 9 °C 7.9 °C 1022.2 hPa North 14.5 km/h 17.7 km/h 93% 0 mm
14:57 8.9 °C 7.7 °C 1022.6 hPa NW 11.3 km/h 25.7 km/h 92% 0 mm
14:58 8.9 °C 7.7 °C 1022.6 hPa North 14.5 km/h 25.7 km/h 92% 0 mm
15:03 8.9 °C 7.9 °C 1022.6 hPa NW 9.7 km/h 14.5 km/h 93% 0 mm
15:05 9 °C 7.9 °C 1022.6 hPa North 6.4 km/h 14.5 km/h 93% 0 mm
15:08 9 °C 7.9 °C 1022.6 hPa NNW 16.1 km/h 16.1 km/h 93% 0 mm
15:13 9.1 °C 8 °C 1022.6 hPa NNW 6.4 km/h 19.3 km/h 93% 0 mm
15:18 9.6 °C 8.5 °C 1022.2 hPa NW 11.3 km/h 14.5 km/h 93% 0 mm
15:23 9.7 °C 8 °C 1022.2 hPa WNW 17.7 km/h 24.1 km/h 89% 0 mm
15:28 9.8 °C 8.2 °C 1022.6 hPa NW 6.4 km/h 16.1 km/h 90% 0 mm
15:29 9.8 °C 8.3 °C 1022.6 hPa North 8 km/h 16.1 km/h 90% 0 mm
15:30 9.9 °C 8.3 °C 1022.6 hPa NNW 12.9 km/h 16.1 km/h 90% 0 mm
15:34 10.1 °C 8.3 °C 1022.6 hPa NNE 11.3 km/h 17.7 km/h 89% 0 mm
15:36 10.1 °C 8.5 °C 1022.6 hPa NW 8 km/h 14.5 km/h 90% 0 mm
15:41 10.3 °C 8.4 °C 1022.6 hPa NNW 8 km/h 17.7 km/h 88% 0 mm
15:46 10.5 °C 8.6 °C 1022.6 hPa NNW 12.9 km/h 14.5 km/h 88% 0 mm
15:51 11 °C 9.4 °C 1022.6 hPa WNW 17.7 km/h 17.7 km/h 90% 0 mm
15:56 11.4 °C 9.1 °C 1022.6 hPa NNW 12.9 km/h 17.7 km/h 86% 0 mm
15:57 11.4 °C 9.1 °C 1022.9 hPa NW 19.3 km/h 19.3 km/h 86% 0 mm
16:02 11.4 °C 8.5 °C 1022.9 hPa NNE 11.3 km/h 19.3 km/h 82% 0 mm
16:07 11.3 °C 8.5 °C 1022.6 hPa NNW 14.5 km/h 17.7 km/h 83% 0 mm
16:12 11.1 °C 8.4 °C 1022.6 hPa NNW 11.3 km/h 12.9 km/h 84% 0 mm
16:17 10.9 °C 8.5 °C 1022.6 hPa NNW 8 km/h 9.7 km/h 85% 0 mm
16:18 10.9 °C 8.5 °C 1022.6 hPa WNW 8 km/h 9.7 km/h 85% 0 mm
16:23 10.9 °C 8.4 °C 1022.6 hPa NNE 9.7 km/h 11.3 km/h 85% 0 mm
16:28 10.8 °C 8.4 °C 1022.6 hPa NNW 9.7 km/h 12.9 km/h 85% 0 mm
16:29 10.8 °C 8.4 °C 1022.2 hPa NW 8 km/h 12.9 km/h 85% 0 mm
16:30 10.9 °C 8.4 °C 1022.2 hPa NNW 6.4 km/h 11.3 km/h 85% 0 mm
16:31 10.9 °C 8.9 °C 1022.2 hPa NNW 6.4 km/h 11.3 km/h 87% 0 mm
16:34 11.1 °C 8.7 °C 1022.6 hPa NW 4.8 km/h 9.7 km/h 85% 0 mm
16:35 11.2 °C 8.8 °C 1022.6 hPa NNW 3.2 km/h 9.7 km/h 85% 0 mm
16:37 11.2 °C 9 °C 1022.6 hPa NW 6.4 km/h 9.7 km/h 86% 0 mm
16:42 11.4 °C 8.8 °C 1022.2 hPa North 3.2 km/h 8 km/h 84% 0 mm
16:43 11.4 °C 8.8 °C 1022.2 hPa NNE 4.8 km/h 8 km/h 84% 0 mm
16:47 11.6 °C 8.8 °C 1022.2 hPa NNE 12.9 km/h 12.9 km/h 83% 0 mm
16:52 11.7 °C 8.9 °C 1022.2 hPa NW 8 km/h 16.1 km/h 83% 0 mm
16:53 11.7 °C 8.9 °C 1022.2 hPa NW 8 km/h 16.1 km/h 83% 0 mm
16:58 11.7 °C 8.8 °C 1022.6 hPa WNW 8 km/h 12.9 km/h 82% 0 mm
17:03 12 °C 9.6 °C 1022.6 hPa North 11.3 km/h 11.3 km/h 85% 0 mm
17:08 12.1 °C 8.9 °C 1022.2 hPa NNW 14.5 km/h 17.7 km/h 81% 0 mm
17:13 12.1 °C 9.1 °C 1022.2 hPa North 14.5 km/h 14.5 km/h 82% 0 mm
17:18 12.3 °C 8.9 °C 1022.6 hPa NW 9.7 km/h 14.5 km/h 80% 0 mm
17:23 12.4 °C 9.4 °C 1022.6 hPa NNW 9.7 km/h 11.3 km/h 82% 0 mm
17:28 12.3 °C 9 °C 1022.6 hPa NW 4.8 km/h 11.3 km/h 80% 0 mm
17:29 12.3 °C 9 °C 1022.6 hPa NW 3.2 km/h 11.3 km/h 80% 0 mm
17:30 12.3 °C 8.7 °C 1022.6 hPa WNW 3.2 km/h 11.3 km/h 79% 0 mm
17:34 12.2 °C 8.9 °C 1022.6 hPa WNW 9.7 km/h 9.7 km/h 80% 0 mm
17:35 12.2 °C 9.2 °C 1022.6 hPa WNW 4.8 km/h 9.7 km/h 82% 0 mm
17:36 12.2 °C 9.1 °C 1022.6 hPa WNW 4.8 km/h 9.7 km/h 81% 0 mm
17:41 12.3 °C 8.9 °C 1022.6 hPa North 11.3 km/h 16.1 km/h 80% 0 mm
17:46 12.6 °C 9.4 °C 1022.6 hPa NW 3.2 km/h 8 km/h 81% 0 mm
17:51 12.6 °C 9.4 °C 1022.6 hPa WNW 1.6 km/h 9.7 km/h 81% 0 mm
17:56 12.6 °C 9.1 °C 1022.6 hPa NW 8 km/h 14.5 km/h 79% 0 mm
17:58 12.7 °C 8.9 °C 1022.6 hPa NW 8 km/h 11.3 km/h 78% 0 mm
18:02 12.8 °C 9.3 °C 1022.6 hPa NW 6.4 km/h 12.9 km/h 79% 0 mm
18:03 12.9 °C 9.2 °C 1022.6 hPa NNW 4.8 km/h 11.3 km/h 78% 0 mm
18:09 13.2 °C 9.4 °C 1022.2 hPa NW 8 km/h 12.9 km/h 78% 0 mm
18:14 13.1 °C 9.5 °C 1022.2 hPa NNW 3.2 km/h 9.7 km/h 79% 0 mm
18:19 13.1 °C 9.3 °C 1022.6 hPa NNE 4.8 km/h 11.3 km/h 78% 0 mm
18:24 13 °C 9.3 °C 1022.6 hPa North 11.3 km/h 11.3 km/h 78% 0 mm
18:29 13 °C 9.1 °C 1022.6 hPa North 4.8 km/h 8 km/h 77% 0 mm
18:32 13.2 °C 9.4 °C 1022.9 hPa North 4.8 km/h 8 km/h 78% 0 mm
18:36 13.3 °C 9.6 °C 1022.6 hPa North 4.8 km/h 6.4 km/h 78% 0 mm
18:37 13.3 °C 9.4 °C 1022.6 hPa NE 3.2 km/h 6.4 km/h 77% 0 mm
18:42 13.1 °C 8.8 °C 1022.6 hPa NW 8 km/h 11.3 km/h 75% 0 mm
18:47 13.1 °C 9 °C 1022.6 hPa NW 6.4 km/h 9.7 km/h 76% 0 mm
18:50 13.3 °C 9.2 °C 1022.6 hPa NNW 4.8 km/h 9.7 km/h 76% 0 mm
18:52 13.4 °C 9.1 °C 1022.6 hPa NNE 8 km/h 11.3 km/h 75% 0 mm
18:54 13.4 °C 9.1 °C 1022.6 hPa NE 6.4 km/h 11.3 km/h 75% 0 mm
18:56 13.4 °C 9.3 °C 1022.6 hPa North 4.8 km/h 9.7 km/h 76% 0 mm
18:57 13.5 °C 9.3 °C 1022.6 hPa NW 3.2 km/h 8 km/h 76% 0 mm
18:59 13.5 °C 9.2 °C 1022.6 hPa NNW 6.4 km/h 8 km/h 75% 0 mm
19:02 13.4 °C 8.9 °C 1022.2 hPa NE 4.8 km/h 11.3 km/h 74% 0 mm
19:04 13.4 °C 8.9 °C 1022.6 hPa NW 4.8 km/h 11.3 km/h 74% 0 mm
19:09 13.3 °C 8.6 °C 1022.6 hPa NW 6.4 km/h 11.3 km/h 73% 0 mm
19:15 13.1 °C 8.6 °C 1022.6 hPa NNW 6.4 km/h 6.4 km/h 74% 0 mm
19:21 12.9 °C 8.8 °C 1022.9 hPa WNW 1.6 km/h 4.8 km/h 76% 0 mm
19:30 12.9 °C 9.2 °C 1022.6 hPa NNW 3.2 km/h 3.2 km/h 78% 0 mm
19:31 13 °C 9.3 °C 1022.6 hPa NNW 1.6 km/h 3.2 km/h 78% 0 mm
19:35 13.1 °C 8.9 °C 1022.6 hPa NW 1.6 km/h 3.2 km/h 76% 0 mm
19:37 13.1 °C 8.9 °C 1022.9 hPa NW 1.6 km/h 3.2 km/h 76% 0 mm
19:43 13.1 °C 9.4 °C 1022.9 hPa Calm   1.6 km/h 78% 0 mm
19:48 13.3 °C 8.9 °C 1022.9 hPa Calm   3.2 km/h 75% 0 mm
19:53 13.4 °C 9.1 °C 1022.9 hPa WNW 3.2 km/h 3.2 km/h 75% 0 mm
19:54 13.4 °C 9.1 °C 1022.9 hPa WNW 3.2 km/h 3.2 km/h 75% 0 mm
19:56 13.4 °C 8.9 °C 1022.9 hPa NW 1.6 km/h 4.8 km/h 74% 0 mm
19:58 13.5 °C 9.3 °C 1022.9 hPa NW 1.6 km/h 3.2 km/h 76% 0 mm
20:03 13.6 °C 9.1 °C 1022.9 hPa NW 1.6 km/h 3.2 km/h 74% 0 mm
20:08 13.5 °C 8.9 °C 1022.9 hPa West 1.6 km/h 3.2 km/h 74% 0 mm
20:09 13.5 °C 8.9 °C 1022.9 hPa WNW 3.2 km/h 3.2 km/h 74% 0 mm
20:14 13.3 °C 8.7 °C 1022.9 hPa WNW 1.6 km/h 3.2 km/h 74% 0 mm
20:19 12.9 °C 8.8 °C 1022.9 hPa Calm   1.6 km/h 76% 0 mm
20:20 12.9 °C 8.8 °C 1022.9 hPa Calm   1.6 km/h 76% 0 mm
20:24 12.6 °C 8.9 °C 1022.9 hPa Calm     78% 0 mm
20:25 12.6 °C 8.9 °C 1023.2 hPa Calm     78% 0 mm
20:30 12.4 °C 8.8 °C 1023.2 hPa Calm     79% 0 mm
20:31 12.3 °C 8.8 °C 1023.2 hPa Calm     79% 0 mm
20:32 12.3 °C 8.7 °C 1023.2 hPa Calm     79% 0 mm
20:35 12.1 °C 8.8 °C 1023.2 hPa Calm     80% 0 mm
20:36 12.1 °C 8.7 °C 1023.2 hPa Calm     80% 0 mm
20:41 11.7 °C 8.6 °C 1023.2 hPa Calm     81% 0 mm
20:46 11.4 °C 8.5 °C 1023.2 hPa Calm     82% 0 mm
20:51 11.1 °C 8.7 °C 1023.2 hPa Calm     85% 0 mm
20:52 11.1 °C 9.1 °C 1023.2 hPa Calm     87% 0 mm
20:54 10.9 °C 8.9 °C 1023.2 hPa Calm     87% 0 mm
20:57 10.7 °C 8.8 °C 1023.2 hPa Calm     88% 0 mm
20:58 10.6 °C 8.7 °C 1023.2 hPa Calm     88% 0 mm
21:03 10.3 °C 8.6 °C 1023.6 hPa Calm     89% 0 mm
21:08 10.1 °C 8.5 °C 1023.6 hPa Calm     90% 0 mm
21:13 9.8 °C 8.4 °C 1023.6 hPa Calm     91% 0 mm
21:14 9.8 °C 8.6 °C 1023.6 hPa Calm     92% 0 mm
21:20 9.7 °C 8.5 °C 1023.6 hPa East 1.6 km/h 3.2 km/h 92% 0 mm
21:21 9.8 °C 8.7 °C 1023.6 hPa East 1.6 km/h 3.2 km/h 93% 0 mm
21:26 9.8 °C 8.7 °C 1023.6 hPa East 1.6 km/h 3.2 km/h 93% 0 mm
21:31 9.8 °C 8.9 °C 1023.6 hPa East 3.2 km/h 3.2 km/h 94% 0 mm
21:36 9.9 °C 8.8 °C 1023.6 hPa ESE 1.6 km/h 1.6 km/h 93% 0 mm
21:37 9.9 °C 8.8 °C 1023.6 hPa East 1.6 km/h 1.6 km/h 93% 0 mm
21:43 9.8 °C 8.7 °C 1023.9 hPa Calm     93% 0 mm
21:48 9.6 °C 8.5 °C 1023.9 hPa Calm     93% 0 mm
21:56 9.1 °C 8.2 °C 1023.9 hPa Calm     94% 0 mm
21:58 9.1 °C 8.2 °C 1023.9 hPa Calm     94% 0 mm
22:03 8.9 °C 8.2 °C 1023.9 hPa Calm     95% 0 mm
22:05 8.8 °C 8.1 °C 1023.9 hPa Calm     95% 0 mm
22:09 8.7 °C 7.9 °C 1023.9 hPa Calm     95% 0 mm
22:10 8.6 °C 7.8 °C 1023.9 hPa Calm     95% 0 mm
22:15 8.5 °C 7.9 °C 1023.9 hPa Calm     96% 0 mm
22:20 8.3 °C 7.7 °C 1023.9 hPa Calm     96% 0 mm
22:26 8.2 °C 7.6 °C 1023.9 hPa Calm     96% 0 mm
22:27 8.2 °C 7.6 °C 1023.9 hPa Calm     96% 0 mm
22:31 8.2 °C 7.8 °C 1024.3 hPa Calm     97% 0 mm
22:32 8.2 °C 7.7 °C 1024.3 hPa Calm     97% 0 mm
22:39 8.1 °C 7.7 °C 1023.9 hPa Calm     97% 0 mm
22:44 7.9 °C 7.5 °C 1024.3 hPa Calm     97% 0 mm
22:50 7.9 °C 7.4 °C 1024.3 hPa Calm     97% 0 mm
22:51 7.9 °C 7.4 °C 1024.3 hPa Calm     97% 0 mm
22:56 7.7 °C 7.3 °C 1024.3 hPa Calm     97% 0 mm
22:58 7.6 °C 7.2 °C 1024.3 hPa Calm     97% 0 mm
23:01 7.7 °C 7.2 °C 1024.3 hPa Calm     97% 0 mm
23:03 7.7 °C 7.2 °C 1024.3 hPa Calm     97% 0 mm
23:08 7.7 °C 7.4 °C 1024.6 hPa Calm     98% 0 mm
23:13 7.7 °C 7.4 °C 1024.6 hPa Calm     98% 0 mm
23:18 7.8 °C 7.5 °C 1024.6 hPa Calm     98% 0 mm
23:24 7.6 °C 7.3 °C 1024.6 hPa Calm     98% 0 mm
23:29 7.5 °C 7.2 °C 1024.6 hPa Calm     98% 0 mm
23:34 7.6 °C 7.3 °C 1024.6 hPa Calm     98% 0 mm
23:35 7.6 °C 7.3 °C 1024.6 hPa Calm     98% 0 mm
23:36 7.5 °C 7.2 °C 1024.3 hPa Calm     98% 0 mm
23:41 7.3 °C 7 °C 1024.3 hPa Calm     98% 0 mm
23:46 7.1 °C 6.8 °C 1024.6 hPa Calm     98% 0 mm
23:51 7 °C 6.7 °C 1024.3 hPa Calm     98% 0 mm
23:52 7 °C 6.7 °C 1024.3 hPa Calm     98% 0 mm
23:53 7 °C 6.7 °C 1024.3 hPa Calm     98% 0 mm
23:57 7 °C 6.7 °C 1024.3 hPa Calm     98% 0 mm
23:58 7 °C 6.7 °C 1024.3 hPa Calm     98% 0 mm
Compliments of Weather Underground